sensor_id;sensor_type;location;lat;lon;timestamp;P1;P2;P0
72509;PMS5003;60532;56.114;40.350;2023-04-01T00:00:28;7.75;4.00;1.75
72509;PMS5003;60532;56.114;40.350;2023-04-01T00:02:29;7.00;7.00;2.00
72509;PMS5003;60532;56.114;40.350;2023-04-01T00:04:29;8.00;8.00;4.00
72509;PMS5003;60532;56.114;40.350;2023-04-01T00:06:30;11.67;9.33;4.00
72509;PMS5003;60532;56.114;40.350;2023-04-01T00:08:31;5.67;5.00;2.00
72509;PMS5003;60532;56.114;40.350;2023-04-01T00:10:32;9.00;5.75;2.00
72509;PMS5003;60532;56.114;40.350;2023-04-01T00:12:32;8.67;7.00;4.00
72509;PMS5003;60532;56.114;40.350;2023-04-01T00:14:33;9.67;7.67;2.67
72509;PMS5003;60532;56.114;40.350;2023-04-01T00:16:34;9.00;6.50;2.00
72509;PMS5003;60532;56.114;40.350;2023-04-01T00:18:35;5.67;5.67;2.00
72509;PMS5003;60532;56.114;40.350;2023-04-01T00:20:35;6.33;4.33;2.00
72509;PMS5003;60532;56.114;40.350;2023-04-01T00:22:36;10.00;8.00;3.33
72509;PMS5003;60532;56.114;40.350;2023-04-01T00:24:37;5.00;4.33;1.00
72509;PMS5003;60532;56.114;40.350;2023-04-01T00:26:37;14.00;9.50;2.00
72509;PMS5003;60532;56.114;40.350;2023-04-01T00:28:38;15.00;9.67;1.33
72509;PMS5003;60532;56.114;40.350;2023-04-01T00:30:38;8.33;8.00;3.33
72509;PMS5003;60532;56.114;40.350;2023-04-01T00:32:38;8.33;8.33;2.00
72509;PMS5003;60532;56.114;40.350;2023-04-01T00:34:39;5.67;5.67;2.00
72509;PMS5003;60532;56.114;40.350;2023-04-01T00:36:40;6.33;5.67;2.00
72509;PMS5003;60532;56.114;40.350;2023-04-01T00:38:40;6.33;4.67;2.00
72509;PMS5003;60532;56.114;40.350;2023-04-01T00:40:43;8.25;4.00;1.75
72509;PMS5003;60532;56.114;40.350;2023-04-01T00:42:44;7.00;5.50;1.50
72509;PMS5003;60532;56.114;40.350;2023-04-01T00:44:46;6.00;6.00;2.00
72509;PMS5003;60532;56.114;40.350;2023-04-01T00:46:48;5.25;4.75;0.00
72509;PMS5003;60532;56.114;40.350;2023-04-01T00:48:50;8.25;7.50;2.00
72509;PMS5003;60532;56.114;40.350;2023-04-01T00:50:52;9.25;7.50;2.00
72509;PMS5003;60532;56.114;40.350;2023-04-01T00:52:55;9.75;5.75;1.25
72509;PMS5003;60532;56.114;40.350;2023-04-01T00:54:56;10.33;8.33;2.00
72509;PMS5003;60532;56.114;40.350;2023-04-01T00:59:04;15.00;9.00;2.00
72509;PMS5003;60532;56.114;40.350;2023-04-01T01:01:08;7.75;6.50;2.00
72509;PMS5003;60532;56.114;40.350;2023-04-01T01:03:09;6.75;5.25;1.50
72509;PMS5003;60532;56.114;40.350;2023-04-01T01:05:13;11.00;7.67;4.00
72509;PMS5003;60532;56.114;40.350;2023-04-01T01:09:31;9.50;9.25;2.50
72509;PMS5003;60532;56.114;40.350;2023-04-01T01:11:39;14.00;7.50;2.00
72509;PMS5003;60532;56.114;40.350;2023-04-01T01:13:43;8.75;8.75;2.00
72509;PMS5003;60532;56.114;40.350;2023-04-01T01:26:36;11.50;8.75;3.00
72509;PMS5003;60532;56.114;40.350;2023-04-01T01:31:12;10.50;8.00;4.00
72509;PMS5003;60532;56.114;40.350;2023-04-01T01:33:35;9.00;8.00;4.00
72509;PMS5003;60532;56.114;40.350;2023-04-01T01:35:49;18.25;12.00;4.00
72509;PMS5003;60532;56.114;40.350;2023-04-01T01:37:52;9.50;9.50;4.00
72509;PMS5003;60532;56.114;40.350;2023-04-01T01:39:56;11.50;9.00;4.00
72509;PMS5003;60532;56.114;40.350;2023-04-01T01:41:59;14.00;10.25;4.00
72509;PMS5003;60532;56.114;40.350;2023-04-01T01:44:01;9.50;9.50;4.00
72509;PMS5003;60532;56.114;40.350;2023-04-01T01:46:07;15.00;12.00;4.50
72509;PMS5003;60532;56.114;40.350;2023-04-01T01:48:09;12.50;11.00;4.00
72509;PMS5003;60532;56.114;40.350;2023-04-01T01:50:10;11.33;9.00;5.00
72509;PMS5003;60532;56.114;40.350;2023-04-01T01:52:12;12.00;9.00;4.33
72509;PMS5003;60532;56.114;40.350;2023-04-01T01:54:13;10.50;9.00;3.50
72509;PMS5003;60532;56.114;40.350;2023-04-01T01:56:14;6.25;6.25;5.00
72509;PMS5003;60532;56.114;40.350;2023-04-01T02:00:41;11.00;10.00;5.00
72509;PMS5003;60532;56.114;40.350;2023-04-01T02:02:44;9.50;9.00;3.50
72509;PMS5003;60532;56.114;40.350;2023-04-01T02:04:45;11.25;9.75;4.50
72509;PMS5003;60532;56.114;40.350;2023-04-01T02:06:47;12.67;11.67;5.00
72509;PMS5003;60532;56.114;40.350;2023-04-01T02:08:57;12.50;10.25;4.50
72509;PMS5003;60532;56.114;40.350;2023-04-01T02:11:00;10.50;9.50;4.75
72509;PMS5003;60532;56.114;40.350;2023-04-01T02:13:01;13.75;11.50;4.75
72509;PMS5003;60532;56.114;40.350;2023-04-01T02:15:06;11.50;11.50;5.00
72509;PMS5003;60532;56.114;40.350;2023-04-01T02:17:09;11.25;11.25;5.00
72509;PMS5003;60532;56.114;40.350;2023-04-01T02:19:11;9.50;6.75;3.50
72509;PMS5003;60532;56.114;40.350;2023-04-01T02:21:13;14.00;9.75;5.00
72509;PMS5003;60532;56.114;40.350;2023-04-01T02:23:14;13.67;11.67;5.00
72509;PMS5003;60532;56.114;40.350;2023-04-01T02:25:17;12.33;11.00;4.00
72509;PMS5003;60532;56.114;40.350;2023-04-01T02:27:18;10.75;8.00;4.00
72509;PMS5003;60532;56.114;40.350;2023-04-01T02:29:20;15.25;11.75;5.00
72509;PMS5003;60532;56.114;40.350;2023-04-01T02:31:21;13.25;12.00;5.00
72509;PMS5003;60532;56.114;40.350;2023-04-01T02:33:22;11.50;8.00;4.00
72509;PMS5003;60532;56.114;40.350;2023-04-01T02:35:23;15.00;12.33;4.00
72509;PMS5003;60532;56.114;40.350;2023-04-01T02:37:25;12.25;9.75;4.00
72509;PMS5003;60532;56.114;40.350;2023-04-01T02:39:25;9.00;9.00;4.00
72509;PMS5003;60532;56.114;40.350;2023-04-01T02:41:26;9.67;9.67;2.67
72509;PMS5003;60532;56.114;40.350;2023-04-01T02:43:27;8.33;8.33;4.00
72509;PMS5003;60532;56.114;40.350;2023-04-01T02:45:27;12.00;10.00;4.50
72509;PMS5003;60532;56.114;40.350;2023-04-01T02:47:28;12.00;9.00;2.67
72509;PMS5003;60532;56.114;40.350;2023-04-01T02:49:29;12.00;10.50;4.00
72509;PMS5003;60532;56.114;40.350;2023-04-01T02:51:29;11.00;11.00;4.67
72509;PMS5003;60532;56.114;40.350;2023-04-01T02:53:30;11.33;11.33;4.00
72509;PMS5003;60532;56.114;40.350;2023-04-01T02:55:30;11.67;8.33;4.00
72509;PMS5003;60532;56.114;40.350;2023-04-01T02:57:31;10.67;6.67;1.33
72509;PMS5003;60532;56.114;40.350;2023-04-01T02:59:31;12.67;11.00;4.00
72509;PMS5003;60532;56.114;40.350;2023-04-01T03:01:32;11.33;10.33;4.00
72509;PMS5003;60532;56.114;40.350;2023-04-01T03:03:32;11.67;8.67;4.33
72509;PMS5003;60532;56.114;40.350;2023-04-01T03:05:32;9.67;8.00;2.00
72509;PMS5003;60532;56.114;40.350;2023-04-01T03:07:33;11.00;11.00;4.00
72509;PMS5003;60532;56.114;40.350;2023-04-01T03:09:33;13.00;11.33;5.00
72509;PMS5003;60532;56.114;40.350;2023-04-01T03:11:34;9.00;8.67;4.33
72509;PMS5003;60532;56.114;40.350;2023-04-01T03:13:35;8.50;7.75;2.00
72509;PMS5003;60532;56.114;40.350;2023-04-01T03:15:36;8.00;8.00;4.33
72509;PMS5003;60532;56.114;40.350;2023-04-01T03:17:37;11.33;11.33;4.00
72509;PMS5003;60532;56.114;40.350;2023-04-01T03:19:37;11.67;9.67;4.67
72509;PMS5003;60532;56.114;40.350;2023-04-01T03:21:37;9.00;9.00;4.00
72509;PMS5003;60532;56.114;40.350;2023-04-01T03:23:38;14.67;12.33;3.33
72509;PMS5003;60532;56.114;40.350;2023-04-01T03:25:38;11.00;9.67;4.67
72509;PMS5003;60532;56.114;40.350;2023-04-01T03:27:39;10.67;9.00;5.00
72509;PMS5003;60532;56.114;40.350;2023-04-01T03:29:39;19.00;11.33;5.00
72509;PMS5003;60532;56.114;40.350;2023-04-01T03:31:40;11.00;11.00;4.33
72509;PMS5003;60532;56.114;40.350;2023-04-01T03:33:40;14.67;11.00;2.67
72509;PMS5003;60532;56.114;40.350;2023-04-01T03:35:41;11.67;9.67;4.33
72509;PMS5003;60532;56.114;40.350;2023-04-01T03:37:41;14.00;12.00;4.00
72509;PMS5003;60532;56.114;40.350;2023-04-01T03:39:42;11.33;11.00;5.00
72509;PMS5003;60532;56.114;40.350;2023-04-01T03:41:42;9.67;9.67;5.00
72509;PMS5003;60532;56.114;40.350;2023-04-01T03:43:42;10.00;9.00;4.00
72509;PMS5003;60532;56.114;40.350;2023-04-01T03:45:44;12.67;9.00;4.00
72509;PMS5003;60532;56.114;40.350;2023-04-01T03:47:45;19.25;12.25;5.00
72509;PMS5003;60532;56.114;40.350;2023-04-01T03:49:45;11.33;11.00;4.00
72509;PMS5003;60532;56.114;40.350;2023-04-01T03:51:46;12.33;8.67;2.00
72509;PMS5003;60532;56.114;40.350;2023-04-01T03:53:46;12.33;12.00;5.00
72509;PMS5003;60532;56.114;40.350;2023-04-01T03:55:47;16.33;12.67;5.00
72509;PMS5003;60532;56.114;40.350;2023-04-01T03:57:47;11.00;11.00;5.00
72509;PMS5003;60532;56.114;40.350;2023-04-01T03:59:47;15.00;11.33;5.00
72509;PMS5003;60532;56.114;40.350;2023-04-01T04:01:48;11.33;11.33;4.00
72509;PMS5003;60532;56.114;40.350;2023-04-01T04:03:49;13.33;13.33;4.00
72509;PMS5003;60532;56.114;40.350;2023-04-01T04:05:49;8.75;8.00;4.00
72509;PMS5003;60532;56.114;40.350;2023-04-01T04:07:50;14.67;13.00;5.00
72509;PMS5003;60532;56.114;40.350;2023-04-01T04:09:51;12.25;12.25;3.50
72509;PMS5003;60532;56.114;40.350;2023-04-01T04:11:51;15.00;10.67;5.00
72509;PMS5003;60532;56.114;40.350;2023-04-01T04:13:52;11.67;10.33;4.67
72509;PMS5003;60532;56.114;40.350;2023-04-01T04:15:52;8.67;5.00;1.00
72509;PMS5003;60532;56.114;40.350;2023-04-01T04:17:53;9.00;9.00;4.00
72509;PMS5003;60532;56.114;40.350;2023-04-01T04:19:53;15.00;9.33;4.33
72509;PMS5003;60532;56.114;40.350;2023-04-01T04:21:54;12.00;11.00;4.00
72509;PMS5003;60532;56.114;40.350;2023-04-01T04:23:54;13.00;9.67;4.00
72509;PMS5003;60532;56.114;40.350;2023-04-01T04:25:58;15.67;10.67;4.00
72509;PMS5003;60532;56.114;40.350;2023-04-01T04:27:59;10.50;8.50;4.00
72509;PMS5003;60532;56.114;40.350;2023-04-01T04:29:59;17.00;10.33;5.33
72509;PMS5003;60532;56.114;40.350;2023-04-01T04:32:00;12.67;9.33;4.33
72509;PMS5003;60532;56.114;40.350;2023-04-01T04:34:00;5.33;5.33;1.00
72509;PMS5003;60532;56.114;40.350;2023-04-01T04:36:02;6.00;6.00;4.33
72509;PMS5003;60532;56.114;40.350;2023-04-01T04:38:03;13.75;9.50;4.75
72509;PMS5003;60532;56.114;40.350;2023-04-01T04:40:03;10.67;8.00;5.00
72509;PMS5003;60532;56.114;40.350;2023-04-01T04:42:05;13.00;7.00;2.00
72509;PMS5003;60532;56.114;40.350;2023-04-01T04:44:05;15.50;10.50;4.00
72509;PMS5003;60532;56.114;40.350;2023-04-01T04:46:06;11.67;9.67;2.00
72509;PMS5003;60532;56.114;40.350;2023-04-01T04:48:07;12.75;12.75;4.00
72509;PMS5003;60532;56.114;40.350;2023-04-01T04:50:08;5.75;5.75;2.00
72509;PMS5003;60532;56.114;40.350;2023-04-01T04:52:08;11.00;11.00;4.00
72509;PMS5003;60532;56.114;40.350;2023-04-01T04:54:09;10.33;7.00;2.00
72509;PMS5003;60532;56.114;40.350;2023-04-01T04:56:10;12.00;8.67;4.00
72509;PMS5003;60532;56.114;40.350;2023-04-01T04:58:10;12.33;10.00;4.33
72509;PMS5003;60532;56.114;40.350;2023-04-01T05:00:11;8.67;8.00;2.00
72509;PMS5003;60532;56.114;40.350;2023-04-01T05:02:11;11.67;10.00;3.33
72509;PMS5003;60532;56.114;40.350;2023-04-01T05:04:12;10.33;7.00;2.00
72509;PMS5003;60532;56.114;40.350;2023-04-01T05:06:13;18.67;11.67;4.67
72509;PMS5003;60532;56.114;40.350;2023-04-01T05:08:14;8.00;7.00;4.00
72509;PMS5003;60532;56.114;40.350;2023-04-01T05:10:15;13.33;9.00;3.67
72509;PMS5003;60532;56.114;40.350;2023-04-01T05:12:15;13.00;10.67;4.33
72509;PMS5003;60532;56.114;40.350;2023-04-01T05:14:16;14.33;10.67;4.00
72509;PMS5003;60532;56.114;40.350;2023-04-01T05:16:18;10.33;8.00;4.00
72509;PMS5003;60532;56.114;40.350;2023-04-01T05:18:19;12.25;10.00;4.00
72509;PMS5003;60532;56.114;40.350;2023-04-01T05:20:19;7.67;7.00;4.33
72509;PMS5003;60532;56.114;40.350;2023-04-01T05:22:20;9.67;7.00;4.00
72509;PMS5003;60532;56.114;40.350;2023-04-01T05:24:20;14.67;14.00;6.33
72509;PMS5003;60532;56.114;40.350;2023-04-01T05:26:21;12.00;10.00;4.00
72509;PMS5003;60532;56.114;40.350;2023-04-01T05:28:21;15.67;9.00;4.00
72509;PMS5003;60532;56.114;40.350;2023-04-01T05:30:22;10.00;6.67;4.00
72509;PMS5003;60532;56.114;40.350;2023-04-01T05:32:22;12.33;8.67;4.00
72509;PMS5003;60532;56.114;40.350;2023-04-01T05:34:23;12.00;8.00;3.33
72509;PMS5003;60532;56.114;40.350;2023-04-01T05:36:23;9.67;8.67;3.33
72509;PMS5003;60532;56.114;40.350;2023-04-01T05:38:24;11.33;9.33;4.00
72509;PMS5003;60532;56.114;40.350;2023-04-01T05:40:24;13.33;12.33;5.00
72509;PMS5003;60532;56.114;40.350;2023-04-01T05:42:25;11.00;8.00;4.00
72509;PMS5003;60532;56.114;40.350;2023-04-01T05:44:25;14.67;12.00;5.00
72509;PMS5003;60532;56.114;40.350;2023-04-01T05:46:26;13.33;12.00;4.33
72509;PMS5003;60532;56.114;40.350;2023-04-01T05:48:26;11.33;9.67;5.00
72509;PMS5003;60532;56.114;40.350;2023-04-01T05:50:27;10.33;9.67;4.33
72509;PMS5003;60532;56.114;40.350;2023-04-01T05:52:27;16.00;11.00;5.00
72509;PMS5003;60532;56.114;40.350;2023-04-01T05:54:28;14.25;12.00;6.00
72509;PMS5003;60532;56.114;40.350;2023-04-01T05:56:29;9.20;9.20;6.00
72509;PMS5003;60532;56.114;40.350;2023-04-01T05:58:29;12.00;10.50;5.00
72509;PMS5003;60532;56.114;40.350;2023-04-01T06:00:30;13.50;11.50;6.00
72509;PMS5003;60532;56.114;40.350;2023-04-01T06:02:30;15.75;13.75;6.50
72509;PMS5003;60532;56.114;40.350;2023-04-01T06:04:34;11.75;10.25;4.50
72509;PMS5003;60532;56.114;40.350;2023-04-01T06:06:37;14.40;12.80;6.80
72509;PMS5003;60532;56.114;40.350;2023-04-01T06:08:38;15.00;10.80;6.20
72509;PMS5003;60532;56.114;40.350;2023-04-01T06:21:12;12.20;10.60;6.00
72509;PMS5003;60532;56.114;40.350;2023-04-01T06:29:47;8.00;8.00;4.00
72509;PMS5003;60532;56.114;40.350;2023-04-01T06:36:15;7.40;7.40;3.00
72509;PMS5003;60532;56.114;40.350;2023-04-01T06:38:24;9.40;9.40;4.00
72509;PMS5003;60532;56.114;40.350;2023-04-01T06:42:58;8.20;8.00;5.60
72509;PMS5003;60532;56.114;40.350;2023-04-01T06:47:22;7.50;7.50;4.00
72509;PMS5003;60532;56.114;40.350;2023-04-01T06:55:43;10.40;7.60;3.60
72509;PMS5003;60532;56.114;40.350;2023-04-01T06:57:49;5.80;5.80;3.00
72509;PMS5003;60532;56.114;40.350;2023-04-01T06:59:51;11.60;11.60;4.40
72509;PMS5003;60532;56.114;40.350;2023-04-01T07:01:55;8.60;7.40;3.00
72509;PMS5003;60532;56.114;40.350;2023-04-01T07:03:58;9.20;8.80;4.00
72509;PMS5003;60532;56.114;40.350;2023-04-01T07:06:04;8.80;8.40;2.80
72509;PMS5003;60532;56.114;40.350;2023-04-01T07:08:06;6.40;6.40;3.20
72509;PMS5003;60532;56.114;40.350;2023-04-01T07:16:43;7.25;7.00;3.00
72509;PMS5003;60532;56.114;40.350;2023-04-01T07:18:45;6.20;6.20;2.40
72509;PMS5003;60532;56.114;40.350;2023-04-01T07:20:48;11.20;8.20;3.00
72509;PMS5003;60532;56.114;40.350;2023-04-01T07:22:49;8.25;7.75;3.00
72509;PMS5003;60532;56.114;40.350;2023-04-01T07:24:51;8.80;7.80;3.00
72509;PMS5003;60532;56.114;40.350;2023-04-01T07:26:54;9.40;7.60;3.00
72509;PMS5003;60532;56.114;40.350;2023-04-01T07:28:55;8.00;6.00;2.80
72509;PMS5003;60532;56.114;40.350;2023-04-01T07:37:14;8.60;7.40;3.00
72509;PMS5003;60532;56.114;40.350;2023-04-01T07:43:44;6.80;6.40;2.00
72509;PMS5003;60532;56.114;40.350;2023-04-01T08:01:02;12.50;8.50;3.00
72509;PMS5003;60532;56.114;40.350;2023-04-01T08:05:10;12.75;11.75;5.00
72509;PMS5003;60532;56.114;40.350;2023-04-01T08:07:18;11.80;10.40;5.00
72509;PMS5003;60532;56.114;40.350;2023-04-01T08:13:48;15.20;11.60;5.00
72509;PMS5003;60532;56.114;40.350;2023-04-01T08:15:59;14.00;12.40;5.00
72509;PMS5003;60532;56.114;40.350;2023-04-01T08:22:41;17.20;14.80;7.00
72509;PMS5003;60532;56.114;40.350;2023-04-01T08:24:42;16.20;13.40;5.00
72509;PMS5003;60532;56.114;40.350;2023-04-01T08:26:44;19.40;13.60;6.00
72509;PMS5003;60532;56.114;40.350;2023-04-01T08:28:59;15.25;14.50;6.25
72509;PMS5003;60532;56.114;40.350;2023-04-01T08:33:05;22.67;18.67;7.00
72509;PMS5003;60532;56.114;40.350;2023-04-01T08:35:24;15.75;11.50;5.75
72509;PMS5003;60532;56.114;40.350;2023-04-01T08:37:30;20.75;17.50;5.75
72509;PMS5003;60532;56.114;40.350;2023-04-01T08:39:34;14.00;12.25;6.00
72509;PMS5003;60532;56.114;40.350;2023-04-01T08:48:19;18.50;14.00;6.00
72509;PMS5003;60532;56.114;40.350;2023-04-01T08:52:36;15.75;13.00;6.00
72509;PMS5003;60532;56.114;40.350;2023-04-01T08:54:46;14.50;13.25;6.00
72509;PMS5003;60532;56.114;40.350;2023-04-01T08:57:01;19.00;13.00;6.00
72509;PMS5003;60532;56.114;40.350;2023-04-01T09:05:45;17.50;13.75;6.50
72509;PMS5003;60532;56.114;40.350;2023-04-01T09:14:19;17.25;16.25;6.00
72509;PMS5003;60532;56.114;40.350;2023-04-01T09:18:43;19.00;14.00;5.25
72509;PMS5003;60532;56.114;40.350;2023-04-01T09:23:15;15.50;10.75;4.50
72509;PMS5003;60532;56.114;40.350;2023-04-01T09:27:30;13.25;11.75;3.00
72509;PMS5003;60532;56.114;40.350;2023-04-01T09:36:07;18.75;14.25;5.00
72509;PMS5003;60532;56.114;40.350;2023-04-01T09:40:31;14.50;10.50;5.50
72509;PMS5003;60532;56.114;40.350;2023-04-01T09:49:11;13.25;11.00;5.00
72509;PMS5003;60532;56.114;40.350;2023-04-01T10:04:00;11.00;9.00;1.50
72509;PMS5003;60532;56.114;40.350;2023-04-01T10:11:10;16.25;9.75;4.00
72509;PMS5003;60532;56.114;40.350;2023-04-01T10:32:56;15.00;13.75;6.00
72509;PMS5003;60532;56.114;40.350;2023-04-01T10:37:42;14.00;12.25;4.75
72509;PMS5003;60532;56.114;40.350;2023-04-01T10:50:54;12.00;11.00;5.00
72509;PMS5003;60532;56.114;40.350;2023-04-01T10:53:15;12.75;11.00;4.00
72509;PMS5003;60532;56.114;40.350;2023-04-01T10:55:34;11.50;9.00;4.50
72509;PMS5003;60532;56.114;40.350;2023-04-01T11:06:17;11.50;11.50;4.50
72509;PMS5003;60532;56.114;40.350;2023-04-01T11:15:30;17.00;15.50;5.75
72509;PMS5003;60532;56.114;40.350;2023-04-01T11:19:42;11.33;8.00;0.00
72509;PMS5003;60532;56.114;40.350;2023-04-01T11:22:10;11.50;11.50;6.00
72509;PMS5003;60532;56.114;40.350;2023-04-01T11:24:24;16.00;13.50;5.25
72509;PMS5003;60532;56.114;40.350;2023-04-01T11:33:03;17.00;13.00;7.00
72509;PMS5003;60532;56.114;40.350;2023-04-01T11:41:40;15.50;10.00;5.00
72509;PMS5003;60532;56.114;40.350;2023-04-01T11:43:47;12.25;9.50;6.50
72509;PMS5003;60532;56.114;40.350;2023-04-01T11:46:03;12.50;9.50;3.50
72509;PMS5003;60532;56.114;40.350;2023-04-01T11:48:13;11.75;11.50;5.00
72509;PMS5003;60532;56.114;40.350;2023-04-01T11:52:32;14.00;13.50;5.00
72509;PMS5003;60532;56.114;40.350;2023-04-01T11:54:40;10.50;8.50;4.00
72509;PMS5003;60532;56.114;40.350;2023-04-01T12:03:43;16.25;10.50;4.00
72509;PMS5003;60532;56.114;40.350;2023-04-01T12:05:52;12.50;11.25;4.50
72509;PMS5003;60532;56.114;40.350;2023-04-01T12:07:57;15.25;10.25;5.25
72509;PMS5003;60532;56.114;40.350;2023-04-01T12:12:17;17.25;14.25;6.25
72509;PMS5003;60532;56.114;40.350;2023-04-01T12:14:41;12.00;9.50;3.00
72509;PMS5003;60532;56.114;40.350;2023-04-01T12:21:23;9.75;9.25;5.75
72509;PMS5003;60532;56.114;40.350;2023-04-01T12:23:32;11.00;10.50;5.00
72509;PMS5003;60532;56.114;40.350;2023-04-01T12:27:43;12.67;11.00;5.00
72509;PMS5003;60532;56.114;40.350;2023-04-01T12:36:47;8.75;8.00;2.50
72509;PMS5003;60532;56.114;40.350;2023-04-01T12:55:49;13.00;13.00;5.00
72509;PMS5003;60532;56.114;40.350;2023-04-01T13:00:46;13.25;12.25;5.00
72509;PMS5003;60532;56.114;40.350;2023-04-01T13:03:01;16.00;10.50;5.00
72509;PMS5003;60532;56.114;40.350;2023-04-01T13:09:24;11.50;11.00;5.50
72509;PMS5003;60532;56.114;40.350;2023-04-01T13:22:48;4.75;4.00;1.00
72509;PMS5003;60532;56.114;40.350;2023-04-01T13:27:01;11.75;10.25;6.00
72509;PMS5003;60532;56.114;40.350;2023-04-01T13:29:15;10.50;8.00;5.00
72509;PMS5003;60532;56.114;40.350;2023-04-01T13:33:27;16.75;11.50;4.50
72509;PMS5003;60532;56.114;40.350;2023-04-01T13:35:37;12.50;12.50;5.75
72509;PMS5003;60532;56.114;40.350;2023-04-01T13:37:54;14.75;13.00;5.50
72509;PMS5003;60532;56.114;40.350;2023-04-01T13:40:10;13.25;13.25;6.00
72509;PMS5003;60532;56.114;40.350;2023-04-01T13:42:17;13.00;12.00;6.50
72509;PMS5003;60532;56.114;40.350;2023-04-01T13:44:21;12.75;12.25;5.50
72509;PMS5003;60532;56.114;40.350;2023-04-01T13:55:21;18.00;9.50;4.00
72509;PMS5003;60532;56.114;40.350;2023-04-01T14:13:06;16.00;12.67;5.67
72509;PMS5003;60532;56.114;40.350;2023-04-01T14:21:33;13.00;12.50;6.50
72509;PMS5003;60532;56.114;40.350;2023-04-01T14:23:42;8.50;8.00;4.00
72509;PMS5003;60532;56.114;40.350;2023-04-01T14:25:56;13.25;12.50;7.50
72509;PMS5003;60532;56.114;40.350;2023-04-01T14:30:26;2.00;2.00;2.00
72509;PMS5003;60532;56.114;40.350;2023-04-01T14:50:24;12.33;11.67;6.00
72509;PMS5003;60532;56.114;40.350;2023-04-01T14:52:28;11.75;9.50;5.00
72509;PMS5003;60532;56.114;40.350;2023-04-01T14:54:32;17.25;13.25;6.00
72509;PMS5003;60532;56.114;40.350;2023-04-01T14:56:42;13.00;10.00;5.00
72509;PMS5003;60532;56.114;40.350;2023-04-01T14:58:47;14.00;14.00;6.00
72509;PMS5003;60532;56.114;40.350;2023-04-01T15:31:13;23.50;18.25;8.00
72509;PMS5003;60532;56.114;40.350;2023-04-01T15:34:07;21.50;18.25;7.50
72509;PMS5003;60532;56.114;40.350;2023-04-01T15:35:43;21.00;19.00;8.00
72509;PMS5003;60532;56.114;40.350;2023-04-01T15:40:03;16.00;15.00;8.25
72509;PMS5003;60532;56.114;40.350;2023-04-01T15:42:25;19.50;15.00;8.25
72509;PMS5003;60532;56.114;40.350;2023-04-01T15:47:52;17.75;15.50;9.00
72509;PMS5003;60532;56.114;40.350;2023-04-01T15:49:42;19.25;15.50;8.25
72509;PMS5003;60532;56.114;40.350;2023-04-01T15:52:33;16.50;14.50;9.00
72509;PMS5003;60532;56.114;40.350;2023-04-01T16:05:47;20.33;17.33;9.33
72509;PMS5003;60532;56.114;40.350;2023-04-01T16:08:06;13.50;11.75;4.25
72509;PMS5003;60532;56.114;40.350;2023-04-01T16:14:39;20.33;18.00;9.00
72509;PMS5003;60532;56.114;40.350;2023-04-01T16:16:59;16.50;16.50;8.50
72509;PMS5003;60532;56.114;40.350;2023-04-01T16:29:48;21.75;19.50;9.25
72509;PMS5003;60532;56.114;40.350;2023-04-01T16:34:01;23.00;21.00;11.33
72509;PMS5003;60532;56.114;40.350;2023-04-01T16:38:09;20.00;17.33;10.33
72509;PMS5003;60532;56.114;40.350;2023-04-01T16:42:19;21.00;20.75;11.50
72509;PMS5003;60532;56.114;40.350;2023-04-01T16:44:23;29.50;26.25;13.50
72509;PMS5003;60532;56.114;40.350;2023-04-01T16:48:49;23.50;23.50;13.50
72509;PMS5003;60532;56.114;40.350;2023-04-01T16:51:11;21.00;19.50;10.00
72509;PMS5003;60532;56.114;40.350;2023-04-01T16:55:17;25.00;23.33;13.00
72509;PMS5003;60532;56.114;40.350;2023-04-01T16:59:24;26.67;25.67;12.00
72509;PMS5003;60532;56.114;40.350;2023-04-01T17:01:28;28.75;27.50;14.00
72509;PMS5003;60532;56.114;40.350;2023-04-01T17:03:32;25.00;23.75;11.50
72509;PMS5003;60532;56.114;40.350;2023-04-01T17:08:03;17.50;10.00;6.00
72509;PMS5003;60532;56.114;40.350;2023-04-01T17:10:53;18.00;17.25;9.25
72509;PMS5003;60532;56.114;40.350;2023-04-01T17:12:37;18.50;15.75;5.50
72509;PMS5003;60532;56.114;40.350;2023-04-01T17:15:12;18.50;16.50;8.75
72509;PMS5003;60532;56.114;40.350;2023-04-01T17:17:08;26.00;21.25;9.75
72509;PMS5003;60532;56.114;40.350;2023-04-01T17:21:16;28.00;25.00;12.33
72509;PMS5003;60532;56.114;40.350;2023-04-01T17:23:38;22.75;21.00;11.00
72509;PMS5003;60532;56.114;40.350;2023-04-01T17:30:13;28.33;22.67;9.33
72509;PMS5003;60532;56.114;40.350;2023-04-01T17:40:56;20.50;19.00;10.00
72509;PMS5003;60532;56.114;40.350;2023-04-01T17:43:08;23.25;21.00;11.00
72509;PMS5003;60532;56.114;40.350;2023-04-01T18:05:34;18.50;15.50;8.00
72509;PMS5003;60532;56.114;40.350;2023-04-01T18:12:16;21.00;16.50;7.00
72509;PMS5003;60532;56.114;40.350;2023-04-01T18:16:22;17.00;16.33;9.00
72509;PMS5003;60532;56.114;40.350;2023-04-01T18:18:35;17.75;15.25;8.00
72509;PMS5003;60532;56.114;40.350;2023-04-01T18:20:47;19.50;15.00;8.00
72509;PMS5003;60532;56.114;40.350;2023-04-01T18:22:58;21.25;19.50;10.75
72509;PMS5003;60532;56.114;40.350;2023-04-01T18:27:16;18.75;17.00;7.00
72509;PMS5003;60532;56.114;40.350;2023-04-01T18:31:25;23.75;21.75;9.25
72509;PMS5003;60532;56.114;40.350;2023-04-01T18:37:52;22.00;22.00;11.25
72509;PMS5003;60532;56.114;40.350;2023-04-01T18:40:00;16.50;13.75;5.75
72509;PMS5003;60532;56.114;40.350;2023-04-01T18:52:36;26.25;23.25;9.00
72509;PMS5003;60532;56.114;40.350;2023-04-01T18:57:10;17.00;12.50;5.00
72509;PMS5003;60532;56.114;40.350;2023-04-01T18:59:24;16.25;14.00;7.75
72509;PMS5003;60532;56.114;40.350;2023-04-01T19:03:40;22.75;20.75;10.00
72509;PMS5003;60532;56.114;40.350;2023-04-01T19:05:44;17.00;16.00;9.00
72509;PMS5003;60532;56.114;40.350;2023-04-01T19:07:47;22.25;20.25;10.00
72509;PMS5003;60532;56.114;40.350;2023-04-01T19:09:49;15.25;15.25;8.00
72509;PMS5003;60532;56.114;40.350;2023-04-01T19:14:04;21.75;18.75;11.00
72509;PMS5003;60532;56.114;40.350;2023-04-01T19:19:12;24.25;19.75;10.00
72509;PMS5003;60532;56.114;40.350;2023-04-01T19:21:19;19.75;18.00;9.50
72509;PMS5003;60532;56.114;40.350;2023-04-01T19:27:53;14.50;14.00;9.75
72509;PMS5003;60532;56.114;40.350;2023-04-01T19:30:07;21.25;16.75;10.00
72509;PMS5003;60532;56.114;40.350;2023-04-01T19:36:44;23.00;15.50;11.50
72509;PMS5003;60532;56.114;40.350;2023-04-01T19:43:02;24.50;23.75;10.50
72509;PMS5003;60532;56.114;40.350;2023-04-01T19:47:38;29.50;19.25;10.00
72509;PMS5003;60532;56.114;40.350;2023-04-01T19:49:46;24.00;21.00;10.00
72509;PMS5003;60532;56.114;40.350;2023-04-01T19:53:59;14.50;12.00;5.00
72509;PMS5003;60532;56.114;40.350;2023-04-01T19:56:14;17.50;15.50;5.00
72509;PMS5003;60532;56.114;40.350;2023-04-01T20:00:36;24.00;20.00;10.00
72509;PMS5003;60532;56.114;40.350;2023-04-01T20:02:53;21.50;18.00;8.50
72509;PMS5003;60532;56.114;40.350;2023-04-01T20:04:56;14.25;12.00;6.00
72509;PMS5003;60532;56.114;40.350;2023-04-01T20:07:04;28.50;24.75;12.25
72509;PMS5003;60532;56.114;40.350;2023-04-01T20:13:28;25.75;17.75;9.00
72509;PMS5003;60532;56.114;40.350;2023-04-01T20:15:39;28.00;20.25;9.00